createdAt,value
2023-05-19T00:00:29.788Z,61.20
2023-05-19T00:03:01.729Z,60.73
2023-05-19T00:05:31.727Z,61.63
2023-05-19T00:08:04.405Z,61.88
2023-05-19T00:10:34.333Z,61.18
2023-05-19T00:13:04.189Z,61.02
2023-05-19T00:15:33.985Z,61.43
2023-05-19T00:18:03.870Z,61.87
2023-05-19T00:20:33.645Z,61.72
2023-05-19T00:23:03.515Z,60.67
2023-05-19T00:25:32.711Z,60.85
2023-05-19T00:28:03.768Z,61.46
2023-05-19T00:30:33.579Z,61.17
2023-05-19T00:33:02.997Z,61.27
2023-05-19T00:35:32.540Z,60.68
2023-05-19T00:38:01.828Z,60.96
2023-05-19T00:40:33.123Z,61.68
2023-05-19T00:43:02.571Z,61.63
2023-05-19T00:45:32.170Z,61.11
2023-05-19T00:48:01.513Z,61.12
2023-05-19T00:50:31.437Z,61.14
2023-05-19T00:53:00.935Z,61.27
2023-05-19T00:55:32.640Z,61.43
2023-05-19T00:58:02.923Z,61.52
2023-05-19T01:00:33.495Z,60.77
2023-05-19T01:03:04.078Z,60.30
2023-05-19T01:05:33.722Z,60.50
2023-05-19T01:08:02.985Z,59.49
2023-05-19T01:10:32.574Z,59.39
2023-05-19T01:13:03.748Z,60.34
2023-05-19T01:15:41.834Z,59.50
2023-05-19T01:18:18.183Z,58.73
2023-05-19T01:21:00.378Z,57.95
2023-05-19T01:23:55.513Z,58.55
2023-05-19T01:26:51.217Z,57.64
2023-05-19T01:30:05.005Z,57.23
2023-05-19T01:32:36.130Z,57.65
2023-05-19T01:35:07.963Z,55.97
2023-05-19T01:37:40.518Z,55.93
2023-05-19T01:40:12.718Z,56.77
2023-05-19T01:42:43.142Z,56.71
2023-05-19T01:45:14.600Z,56.57
2023-05-19T01:47:46.345Z,54.18
2023-05-19T01:50:16.427Z,52.29
2023-05-19T01:52:45.658Z,52.17
2023-05-19T01:55:15.073Z,52.67
2023-05-19T01:58:02.962Z,50.19
2023-05-19T02:00:42.558Z,49.76
2023-05-19T02:03:17.777Z,47.42
2023-05-19T02:05:59.368Z,49.37
2023-05-19T02:08:34.319Z,47.24
2023-05-19T02:11:13.419Z,46.62
2023-05-19T02:13:51.021Z,46.51
2023-05-19T02:16:26.638Z,46.11
2023-05-19T02:18:58.409Z,46.45
2023-05-19T02:21:28.817Z,45.21
2023-05-19T02:23:57.993Z,44.05
2023-05-19T02:26:27.568Z,44.75
2023-05-19T02:28:56.878Z,44.26
2023-05-19T02:31:26.880Z,42.50
2023-05-19T02:33:58.201Z,40.83
2023-05-19T02:36:27.917Z,41.95
2023-05-19T02:38:57.253Z,40.45
2023-05-19T02:41:27.322Z,41.15
2023-05-19T02:43:57.197Z,41.22
2023-05-19T02:46:26.486Z,40.56
2023-05-19T02:48:56.529Z,42.37
2023-05-19T02:51:25.870Z,39.48
2023-05-19T02:53:55.258Z,39.89
2023-05-19T02:56:25.403Z,40.42
2023-05-19T02:58:55.463Z,38.07
2023-05-19T03:01:24.869Z,38.36
2023-05-19T03:03:54.436Z,38.03
2023-05-19T03:06:24.731Z,38.39
2023-05-19T03:08:54.088Z,38.31
2023-05-19T03:11:24.345Z,40.00
2023-05-19T03:13:54.471Z,39.30
2023-05-19T03:16:23.689Z,40.33
2023-05-19T03:18:53.553Z,38.60
2023-05-19T03:21:22.963Z,39.43
2023-05-19T03:23:52.600Z,38.58
2023-05-19T03:26:24.316Z,38.91
2023-05-19T03:28:53.991Z,38.68
2023-05-19T03:31:24.201Z,38.82
2023-05-19T03:33:53.550Z,38.88
2023-05-19T03:36:23.949Z,41.62
2023-05-19T03:38:53.702Z,40.42
2023-05-19T03:41:23.364Z,38.41
2023-05-19T03:43:53.296Z,38.75
2023-05-19T03:46:25.997Z,41.55
2023-05-19T03:49:25.418Z,38.19
2023-05-19T03:52:14.031Z,39.78
2023-05-19T03:54:57.114Z,39.36
2023-05-19T03:57:26.544Z,40.41
2023-05-19T03:59:55.999Z,38.96
2023-05-19T04:02:25.524Z,39.21
2023-05-19T04:04:55.354Z,38.59
2023-05-19T04:07:24.869Z,37.23
2023-05-19T04:09:54.273Z,39.44
2023-05-19T04:12:23.797Z,39.90
2023-05-19T04:14:55.182Z,39.22
2023-05-19T04:17:30.361Z,38.34
2023-05-19T04:20:00.296Z,38.83
2023-05-19T04:22:30.552Z,36.83
2023-05-19T04:25:01.372Z,37.46
2023-05-19T04:27:32.999Z,35.79
2023-05-19T04:30:02.368Z,35.48
2023-05-19T04:32:32.695Z,36.20
2023-05-19T04:35:09.449Z,35.70
2023-05-19T04:37:40.311Z,34.66
2023-05-19T04:40:12.201Z,34.79
2023-05-19T04:42:44.224Z,34.27
2023-05-19T04:45:15.041Z,34.42
2023-05-19T04:47:49.365Z,33.84
2023-05-19T04:50:18.737Z,34.58
2023-05-19T04:52:47.946Z,35.10
2023-05-19T04:55:18.426Z,33.09
2023-05-19T04:57:49.193Z,33.91
2023-05-19T05:00:20.031Z,33.24
2023-05-19T05:03:00.785Z,36.17
2023-05-19T05:05:33.094Z,33.93
2023-05-19T05:08:03.103Z,34.60
2023-05-19T05:10:37.986Z,31.51
2023-05-19T05:13:09.972Z,36.25
2023-05-19T05:15:42.074Z,31.37
2023-05-19T05:18:13.220Z,31.78
2023-05-19T05:20:44.814Z,33.74
2023-05-19T05:23:17.958Z,34.03
2023-05-19T05:25:49.889Z,32.50
2023-05-19T05:28:21.264Z,32.22
2023-05-19T05:30:51.346Z,35.30
2023-05-19T05:33:20.857Z,31.16
2023-05-19T05:35:51.650Z,33.60
2023-05-19T05:38:23.779Z,34.20
2023-05-19T05:40:56.223Z,31.14
2023-05-19T05:43:25.698Z,32.13
2023-05-19T05:46:00.390Z,32.11
2023-05-19T05:48:30.120Z,31.35
2023-05-19T05:51:01.601Z,31.83
2023-05-19T05:53:38.470Z,31.64
2023-05-19T05:56:09.770Z,31.76
2023-05-19T05:58:47.730Z,34.02
2023-05-19T06:01:19.023Z,31.28
2023-05-19T06:03:48.447Z,29.76
2023-05-19T06:06:22.558Z,30.97
2023-05-19T06:08:53.662Z,32.96
2023-05-19T06:11:24.719Z,31.45
2023-05-19T06:13:55.863Z,31.25
2023-05-19T06:17:03.728Z,32.13
2023-05-19T06:19:33.895Z,31.46
2023-05-19T06:22:03.323Z,32.04
2023-05-19T06:24:33.290Z,32.71
2023-05-19T06:27:02.682Z,30.83
2023-05-19T06:29:32.168Z,31.39
2023-05-19T06:32:05.028Z,30.12
2023-05-19T06:34:34.646Z,32.63
2023-05-19T06:37:04.190Z,29.51
2023-05-19T06:39:35.663Z,29.49
2023-05-19T06:42:05.404Z,31.82
2023-05-19T06:44:57.980Z,32.91
2023-05-19T06:47:28.465Z,30.36
2023-05-19T06:49:59.087Z,31.69
2023-05-19T06:52:32.360Z,31.06
2023-05-19T06:55:04.057Z,30.16
2023-05-19T06:57:35.322Z,30.22
2023-05-19T07:00:08.109Z,33.08
2023-05-19T07:02:37.955Z,32.91
2023-05-19T07:05:09.443Z,28.76
2023-05-19T07:07:39.035Z,31.78
2023-05-19T07:10:13.531Z,30.63
2023-05-19T07:12:43.163Z,32.94
2023-05-19T07:15:12.968Z,29.25
2023-05-19T07:17:42.953Z,29.38
2023-05-19T07:20:13.354Z,29.23
2023-05-19T07:22:42.757Z,29.23
2023-05-19T07:25:11.993Z,31.57
2023-05-19T07:27:42.512Z,31.56
2023-05-19T07:30:12.256Z,28.96
2023-05-19T07:32:42.402Z,29.33
2023-05-19T07:35:11.687Z,29.12
2023-05-19T07:37:41.354Z,30.29
2023-05-19T07:40:11.542Z,29.22
2023-05-19T07:42:40.883Z,30.66
2023-05-19T07:45:10.957Z,31.74
2023-05-19T07:47:40.462Z,31.81
2023-05-19T07:50:10.183Z,28.42
2023-05-19T07:52:40.105Z,29.83
2023-05-19T07:55:09.416Z,31.17
2023-05-19T07:57:39.210Z,31.01
2023-05-19T08:00:12.903Z,31.38
2023-05-19T08:02:43.462Z,31.56
2023-05-19T08:05:13.052Z,29.68
2023-05-19T08:07:42.576Z,28.89
2023-05-19T08:10:11.920Z,31.46
2023-05-19T08:12:41.250Z,31.55
2023-05-19T08:15:12.721Z,31.13
2023-05-19T08:17:42.234Z,31.43
2023-05-19T08:20:15.269Z,28.69
2023-05-19T08:22:45.170Z,31.33
2023-05-19T08:25:14.974Z,29.70
2023-05-19T08:27:44.308Z,30.35
2023-05-19T08:30:14.258Z,28.51
2023-05-19T08:32:43.817Z,30.25
2023-05-19T08:35:13.054Z,30.67
2023-05-19T08:37:42.531Z,28.13
2023-05-19T08:40:20.122Z,30.40
2023-05-19T08:42:50.430Z,28.91
2023-05-19T08:45:19.905Z,30.73
2023-05-19T08:47:50.703Z,29.74
2023-05-19T08:50:30.181Z,28.94
2023-05-19T08:53:07.186Z,28.25
2023-05-19T08:55:54.349Z,28.68
2023-05-19T08:58:24.739Z,29.15
2023-05-19T09:00:55.322Z,28.25
2023-05-19T09:03:27.696Z,30.00
2023-05-19T09:05:57.063Z,28.90
2023-05-19T09:08:26.428Z,29.27
2023-05-19T09:10:55.829Z,29.03
2023-05-19T09:13:25.699Z,29.49
2023-05-19T09:15:55.343Z,30.36
2023-05-19T09:18:29.416Z,29.02
2023-05-19T09:21:06.290Z,29.41
2023-05-19T09:23:36.077Z,30.81
2023-05-19T09:26:10.024Z,29.08
2023-05-19T09:28:39.618Z,29.33
2023-05-19T09:31:10.484Z,29.17
2023-05-19T09:33:44.313Z,28.53
2023-05-19T09:36:15.667Z,29.08
2023-05-19T09:38:47.295Z,28.69
2023-05-19T09:41:17.472Z,28.52
2023-05-19T09:43:57.541Z,29.41
2023-05-19T09:46:34.235Z,28.11
2023-05-19T09:49:14.163Z,27.42
2023-05-19T09:51:43.938Z,27.98
2023-05-19T09:54:19.775Z,27.10
2023-05-19T09:56:58.554Z,27.08
2023-05-19T09:59:32.286Z,27.39
2023-05-19T10:02:03.708Z,27.69
2023-05-19T10:04:33.528Z,27.93
2023-05-19T10:07:06.565Z,28.68
2023-05-19T10:09:39.733Z,27.10
2023-05-19T10:12:13.231Z,26.53
2023-05-19T10:14:42.937Z,27.47
2023-05-19T10:17:13.736Z,27.42
2023-05-19T10:19:45.963Z,28.11
2023-05-19T10:22:15.679Z,27.27
2023-05-19T10:24:53.106Z,26.79
2023-05-19T10:27:24.005Z,27.17
2023-05-19T10:29:56.456Z,26.93
2023-05-19T10:32:30.989Z,26.80
2023-05-19T10:35:19.201Z,27.18
2023-05-19T10:38:01.139Z,27.84
2023-05-19T10:40:42.964Z,26.42
2023-05-19T10:43:13.007Z,27.19
2023-05-19T10:45:55.001Z,26.53
2023-05-19T10:48:24.826Z,27.01
2023-05-19T10:50:58.675Z,25.74
2023-05-19T10:53:36.338Z,25.73
2023-05-19T10:56:08.118Z,26.43
2023-05-19T10:58:46.929Z,25.79
2023-05-19T11:01:25.878Z,26.04
2023-05-19T11:03:58.376Z,26.41
2023-05-19T11:06:33.216Z,25.79
2023-05-19T11:09:13.012Z,25.41
2023-05-19T11:11:56.316Z,25.31
2023-05-19T11:14:28.712Z,25.46
2023-05-19T11:17:00.444Z,25.68
2023-05-19T11:19:39.345Z,25.10
2023-05-19T11:22:14.141Z,26.88
2023-05-19T11:24:54.574Z,26.30
2023-05-19T11:27:34.869Z,25.29
2023-05-19T11:30:11.024Z,26.72
2023-05-19T11:32:43.396Z,26.09
2023-05-19T11:35:14.038Z,26.80
2023-05-19T11:37:44.534Z,26.61
2023-05-19T11:40:16.936Z,26.78
2023-05-19T11:42:46.702Z,25.99
2023-05-19T11:45:16.087Z,25.74
2023-05-19T11:48:01.178Z,25.87
2023-05-19T11:50:33.558Z,25.86
2023-05-19T11:53:03.332Z,25.36
2023-05-19T11:55:33.820Z,26.78
2023-05-19T11:58:05.869Z,26.70
2023-05-19T12:00:46.934Z,27.63
2023-05-19T12:03:16.889Z,27.53
2023-05-19T12:05:47.957Z,27.90
2023-05-19T12:08:22.785Z,27.23
2023-05-19T12:10:53.713Z,27.28
2023-05-19T12:13:24.592Z,28.03
2023-05-19T12:15:54.587Z,27.38
2023-05-19T12:18:29.031Z,28.48
2023-05-19T12:20:58.621Z,28.01
2023-05-19T12:23:31.922Z,28.08
2023-05-19T12:26:02.293Z,28.46
2023-05-19T12:28:35.074Z,28.70
2023-05-19T12:31:04.670Z,28.90
2023-05-19T12:33:36.008Z,28.86
2023-05-19T12:36:06.912Z,29.01
2023-05-19T12:38:38.487Z,29.78
2023-05-19T12:41:08.317Z,28.97
2023-05-19T12:43:38.822Z,28.56
2023-05-19T12:46:15.360Z,28.23
2023-05-19T12:48:45.991Z,28.60
2023-05-19T12:51:21.839Z,29.17
2023-05-19T12:53:53.037Z,29.69
2023-05-19T12:56:23.368Z,28.91
2023-05-19T12:58:59.571Z,29.25
2023-05-19T13:01:32.548Z,29.40
2023-05-19T13:04:04.582Z,29.45
2023-05-19T13:06:35.958Z,30.10
2023-05-19T13:09:05.358Z,29.83
2023-05-19T13:11:34.944Z,31.01
2023-05-19T13:14:04.357Z,30.47
2023-05-19T13:16:34.606Z,30.58
2023-05-19T13:19:06.197Z,30.75
2023-05-19T13:21:36.876Z,31.28
2023-05-19T13:24:06.731Z,30.78
2023-05-19T13:26:36.195Z,30.13
2023-05-19T13:29:05.786Z,30.54
2023-05-19T13:31:35.356Z,29.85
2023-05-19T13:34:05.598Z,30.21
2023-05-19T13:36:36.204Z,30.91
2023-05-19T13:39:06.531Z,31.19
2023-05-19T13:41:36.911Z,31.08
2023-05-19T13:44:06.054Z,31.14
2023-05-19T13:46:44.926Z,31.29
2023-05-19T13:49:15.845Z,31.57
2023-05-19T13:51:45.568Z,32.93
2023-05-19T13:54:14.796Z,32.30
2023-05-19T13:56:45.951Z,32.46
2023-05-19T13:59:15.448Z,33.81
2023-05-19T14:01:46.698Z,32.87
2023-05-19T14:04:19.686Z,33.20
2023-05-19T14:06:49.839Z,33.57
2023-05-19T14:09:19.031Z,33.89
2023-05-19T14:11:49.459Z,33.42
2023-05-19T14:14:19.257Z,32.90
2023-05-19T14:16:48.826Z,32.93
2023-05-19T14:19:18.329Z,33.39
2023-05-19T14:21:51.093Z,33.65
2023-05-19T14:24:21.286Z,32.96
2023-05-19T14:26:51.112Z,33.35
2023-05-19T14:29:21.201Z,33.66
2023-05-19T14:31:50.716Z,34.12
2023-05-19T14:34:22.119Z,34.19
2023-05-19T14:36:52.174Z,34.85
2023-05-19T14:39:21.809Z,34.95
2023-05-19T14:41:53.145Z,34.84
2023-05-19T14:44:22.619Z,35.97
2023-05-19T14:46:51.992Z,35.68
2023-05-19T14:49:21.453Z,36.44
2023-05-19T14:51:50.787Z,36.19
2023-05-19T14:54:20.414Z,37.23
2023-05-19T14:56:49.856Z,37.57
2023-05-19T14:59:19.840Z,39.01
2023-05-19T15:01:49.108Z,39.33
2023-05-19T15:04:18.932Z,39.54
2023-05-19T15:06:55.029Z,40.36
2023-05-19T15:09:35.066Z,41.04
2023-05-19T15:12:04.443Z,40.75
2023-05-19T15:14:34.608Z,40.81
2023-05-19T15:17:04.051Z,40.95
2023-05-19T15:19:33.853Z,41.32
2023-05-19T15:22:03.590Z,41.40
2023-05-19T15:24:32.915Z,42.25
2023-05-19T15:27:03.141Z,42.49
2023-05-19T15:29:32.754Z,42.55
2023-05-19T15:32:02.141Z,43.22
2023-05-19T15:34:35.898Z,43.07
2023-05-19T15:37:06.001Z,43.60
2023-05-19T15:39:36.014Z,43.25
2023-05-19T15:42:05.736Z,43.88
2023-05-19T15:44:35.187Z,44.65
2023-05-19T15:47:04.965Z,44.56
2023-05-19T15:49:34.554Z,44.88
2023-05-19T15:52:04.873Z,45.23
2023-05-19T15:54:34.349Z,45.27
2023-05-19T15:57:03.533Z,45.31
2023-05-19T15:59:33.721Z,44.66
2023-05-19T16:02:03.706Z,45.63
2023-05-19T16:04:33.049Z,45.56
2023-05-19T16:07:02.490Z,45.78
2023-05-19T16:09:31.776Z,46.80
2023-05-19T16:12:01.516Z,46.75
2023-05-19T16:14:34.507Z,46.76
2023-05-19T16:17:12.426Z,47.15
2023-05-19T16:19:42.224Z,46.81
2023-05-19T16:22:11.820Z,46.15
2023-05-19T16:24:41.267Z,47.31
2023-05-19T16:27:11.335Z,48.52
2023-05-19T16:29:41.322Z,47.52
2023-05-19T16:32:10.655Z,47.93
2023-05-19T16:34:40.170Z,48.96
2023-05-19T16:37:09.504Z,49.48
2023-05-19T16:39:38.820Z,48.41
2023-05-19T16:42:08.316Z,49.10
2023-05-19T16:44:37.619Z,49.57
2023-05-19T16:47:07.920Z,48.73
2023-05-19T16:49:37.351Z,49.52
2023-05-19T16:52:06.995Z,50.54
2023-05-19T16:54:36.804Z,50.67
2023-05-19T16:57:06.925Z,50.34
2023-05-19T16:59:36.404Z,49.73
2023-05-19T17:02:06.059Z,50.20
2023-05-19T17:04:35.963Z,50.43
2023-05-19T17:07:06.047Z,51.18
2023-05-19T17:09:35.670Z,51.75
2023-05-19T17:12:05.887Z,51.30
2023-05-19T17:14:36.111Z,50.64
2023-05-19T17:17:06.318Z,52.42
2023-05-19T17:19:36.969Z,52.89
2023-05-19T17:22:06.794Z,51.81
2023-05-19T17:24:36.253Z,53.19
2023-05-19T17:27:07.067Z,53.43
2023-05-19T17:29:37.326Z,51.50
2023-05-19T17:32:07.527Z,52.18
2023-05-19T17:34:37.263Z,53.40
2023-05-19T17:37:07.778Z,52.26
2023-05-19T17:39:37.725Z,52.68
2023-05-19T17:42:08.961Z,52.32
2023-05-19T17:44:39.295Z,53.33
2023-05-19T17:47:09.516Z,52.22
2023-05-19T17:49:41.533Z,54.13
2023-05-19T17:52:12.156Z,55.02
2023-05-19T17:54:42.330Z,55.46
2023-05-19T17:57:16.488Z,56.06
2023-05-19T17:59:46.932Z,56.19
2023-05-19T18:02:16.960Z,55.75
2023-05-19T18:04:47.450Z,56.45
2023-05-19T18:07:17.982Z,56.29
2023-05-19T18:09:49.133Z,56.92
2023-05-19T18:12:19.641Z,57.35
2023-05-19T18:14:49.618Z,56.05
2023-05-19T18:17:19.392Z,55.38
2023-05-19T18:19:50.977Z,55.37
2023-05-19T18:22:20.946Z,55.64
2023-05-19T18:24:51.052Z,56.03
2023-05-19T18:27:21.626Z,57.33
2023-05-19T18:29:51.854Z,56.49
2023-05-19T18:32:22.231Z,54.91
2023-05-19T18:34:52.177Z,53.77
2023-05-19T18:37:22.335Z,53.06
2023-05-19T18:39:53.199Z,52.95
2023-05-19T18:42:23.639Z,53.52
2023-05-19T18:44:53.910Z,51.14
2023-05-19T18:47:24.481Z,51.81
2023-05-19T18:49:54.380Z,48.91
2023-05-19T18:52:24.115Z,49.43
2023-05-19T18:54:54.728Z,49.22
2023-05-19T18:57:24.881Z,49.71
2023-05-19T18:59:55.064Z,47.80
2023-05-19T19:02:24.676Z,48.60
2023-05-19T19:04:54.608Z,47.07
2023-05-19T19:07:27.996Z,47.22
2023-05-19T19:09:57.492Z,49.13
2023-05-19T19:12:27.574Z,49.71
2023-05-19T19:14:57.738Z,48.75
2023-05-19T19:17:27.979Z,49.15
2023-05-19T19:19:57.727Z,49.64
2023-05-19T19:22:27.725Z,50.36
2023-05-19T19:24:57.162Z,45.13
2023-05-19T19:27:32.438Z,48.98
2023-05-19T19:30:02.902Z,49.15
2023-05-19T19:32:33.681Z,46.84
2023-05-19T19:35:03.314Z,48.17
2023-05-19T19:37:33.459Z,49.06
2023-05-19T19:40:03.171Z,48.82
2023-05-19T19:42:32.941Z,47.82
2023-05-19T19:45:02.691Z,48.56
2023-05-19T19:47:31.945Z,47.19
2023-05-19T19:50:03.825Z,47.95
2023-05-19T19:52:33.612Z,47.26
2023-05-19T19:55:03.638Z,46.66
2023-05-19T19:57:35.167Z,46.96
2023-05-19T20:00:09.434Z,47.92
2023-05-19T20:02:55.330Z,47.62
2023-05-19T20:05:29.838Z,47.56
2023-05-19T20:07:58.937Z,47.59
2023-05-19T20:10:29.024Z,49.01
2023-05-19T20:12:59.997Z,48.68
2023-05-19T20:15:29.619Z,49.50
2023-05-19T20:17:58.775Z,49.70
2023-05-19T20:20:28.505Z,49.63
2023-05-19T20:22:57.630Z,48.55
2023-05-19T20:25:27.332Z,49.48
2023-05-19T20:28:06.891Z,49.01
2023-05-19T20:30:36.808Z,49.94
2023-05-19T20:33:06.857Z,49.44
2023-05-19T20:35:36.399Z,48.95
2023-05-19T20:38:05.753Z,48.36
2023-05-19T20:40:35.239Z,47.89
2023-05-19T20:43:04.689Z,47.05
2023-05-19T20:45:34.945Z,45.85
2023-05-19T20:48:04.864Z,46.97
2023-05-19T20:50:34.263Z,46.46
2023-05-19T20:53:03.955Z,47.88
2023-05-19T20:55:33.476Z,48.75
2023-05-19T20:58:02.777Z,48.24
2023-05-19T21:00:32.765Z,48.78
2023-05-19T21:03:03.155Z,49.52
2023-05-19T21:05:33.095Z,49.77
2023-05-19T21:08:02.705Z,50.02
2023-05-19T21:10:32.331Z,50.20
2023-05-19T21:13:01.966Z,50.43
2023-05-19T21:15:31.375Z,50.62
2023-05-19T21:18:01.515Z,49.99
2023-05-19T21:20:30.944Z,49.85
2023-05-19T21:23:00.307Z,49.16
2023-05-19T21:25:29.592Z,48.97
2023-05-19T21:28:02.145Z,47.92
2023-05-19T21:30:31.845Z,48.09
2023-05-19T21:33:01.148Z,47.93
2023-05-19T21:35:30.424Z,48.83
2023-05-19T21:38:03.885Z,48.60
2023-05-19T21:40:39.143Z,49.97
2023-05-19T21:43:08.566Z,49.87
2023-05-19T21:45:38.996Z,49.63
2023-05-19T21:48:08.519Z,49.74
2023-05-19T21:50:38.786Z,51.05
2023-05-19T21:53:08.266Z,51.22
2023-05-19T21:55:37.438Z,51.12
2023-05-19T21:58:07.153Z,50.47
2023-05-19T22:00:37.647Z,50.30
2023-05-19T22:03:07.952Z,50.50
2023-05-19T22:05:39.157Z,51.43
2023-05-19T22:08:09.459Z,51.66
2023-05-19T22:10:38.900Z,51.87
2023-05-19T22:13:08.629Z,52.00
2023-05-19T22:15:38.912Z,53.21
2023-05-19T22:18:08.462Z,53.35
2023-05-19T22:20:38.501Z,52.24
2023-05-19T22:23:08.757Z,51.74
2023-05-19T22:25:37.976Z,51.45
2023-05-19T22:28:09.269Z,49.87
2023-05-19T22:30:41.301Z,51.25
2023-05-19T22:33:11.558Z,50.34
2023-05-19T22:35:41.422Z,51.27
2023-05-19T22:38:10.893Z,50.26
2023-05-19T22:40:40.692Z,50.49
2023-05-19T22:43:09.817Z,49.29
2023-05-19T22:45:39.366Z,49.44
2023-05-19T22:48:08.779Z,51.03
2023-05-19T22:50:38.070Z,49.80
2023-05-19T22:53:07.154Z,50.33
2023-05-19T22:55:36.781Z,50.39
2023-05-19T22:58:07.415Z,49.76
2023-05-19T23:00:38.072Z,50.71
2023-05-19T23:03:07.511Z,50.15
2023-05-19T23:05:36.529Z,50.63
2023-05-19T23:08:06.011Z,52.41
2023-05-19T23:10:35.033Z,51.36
2023-05-19T23:13:04.345Z,50.65
2023-05-19T23:15:33.917Z,51.54
2023-05-19T23:18:08.130Z,51.02
2023-05-19T23:20:37.624Z,52.61
2023-05-19T23:23:06.840Z,52.35
2023-05-19T23:25:36.376Z,52.03
2023-05-19T23:28:05.987Z,51.66
2023-05-19T23:30:38.742Z,51.85
2023-05-19T23:33:08.429Z,53.40
2023-05-19T23:35:37.836Z,51.32
2023-05-19T23:38:07.224Z,52.49
2023-05-19T23:40:36.952Z,51.88
2023-05-19T23:43:06.398Z,51.97
2023-05-19T23:45:36.433Z,53.15
2023-05-19T23:48:06.611Z,54.01
2023-05-19T23:50:36.083Z,52.56
2023-05-19T23:53:05.461Z,54.41
2023-05-19T23:55:34.787Z,53.84
2023-05-19T23:58:05.018Z,53.70
